createdAt,value
2019-04-29T00:00:07.699Z,13.91
2019-04-29T00:05:10.186Z,13.92
2019-04-29T00:10:15.471Z,13.92
2019-04-29T00:15:33.573Z,13.89
2019-04-29T00:20:46.438Z,13.85
2019-04-29T00:25:48.738Z,13.87
2019-04-29T00:30:50.805Z,13.81
2019-04-29T00:35:52.991Z,13.80
2019-04-29T00:41:13.077Z,13.77
2019-04-29T00:46:15.234Z,13.77
2019-04-29T00:51:17.315Z,13.69
2019-04-29T00:56:19.985Z,13.71
2019-04-29T01:01:24.421Z,13.72
2019-04-29T01:06:26.463Z,13.71
2019-04-29T01:11:28.510Z,13.70
2019-04-29T01:16:30.541Z,13.69
2019-04-29T01:21:32.627Z,13.65
2019-04-29T01:27:12.423Z,13.66
2019-04-29T01:32:14.453Z,13.66
2019-04-29T01:37:16.549Z,13.62
2019-04-29T01:42:31.174Z,13.58
2019-04-29T01:47:33.215Z,13.58
2019-04-29T01:52:35.273Z,13.57
2019-04-29T01:57:37.347Z,13.55
2019-04-29T02:02:39.460Z,13.51
2019-04-29T02:07:41.517Z,13.48
2019-04-29T02:12:43.706Z,13.45
2019-04-29T02:17:45.733Z,13.40
2019-04-29T02:23:07.396Z,13.34
2019-04-29T02:28:14.877Z,13.27
2019-04-29T02:33:16.924Z,13.25
2019-04-29T02:38:30.111Z,13.21
2019-04-29T02:43:34.096Z,13.18
2019-04-29T02:48:36.130Z,13.17
2019-04-29T02:53:38.212Z,13.19
2019-04-29T02:58:46.803Z,13.17
2019-04-29T03:03:57.782Z,13.19
2019-04-29T03:08:59.824Z,13.20
2019-04-29T03:14:01.982Z,13.16
2019-04-29T03:19:08.865Z,13.20
2019-04-29T03:24:10.953Z,13.22
2019-04-29T03:29:21.948Z,13.25
2019-04-29T03:34:24.035Z,13.25
2019-04-29T03:39:26.082Z,13.26
2019-04-29T03:44:28.167Z,13.24
2019-04-29T03:49:30.247Z,13.21
2019-04-29T03:54:32.452Z,13.21
2019-04-29T03:59:34.638Z,13.24
2019-04-29T04:04:57.508Z,13.28
2019-04-29T04:09:59.579Z,13.31
2019-04-29T04:15:01.629Z,13.29
2019-04-29T04:20:04.512Z,13.31
2019-04-29T04:25:06.580Z,13.33
2019-04-29T04:30:08.926Z,13.34
2019-04-29T04:35:11.669Z,13.36
2019-04-29T04:40:17.010Z,13.31
2019-04-29T04:45:19.190Z,13.45
2019-04-29T04:50:21.259Z,13.48
2019-04-29T04:55:26.529Z,13.35
2019-04-29T05:00:30.492Z,13.49
2019-04-29T05:05:32.561Z,13.55
2019-04-29T05:10:34.618Z,13.65
2019-04-29T05:15:36.687Z,13.63
2019-04-29T05:20:38.792Z,13.77
2019-04-29T05:25:40.867Z,13.85
2019-04-29T05:30:42.888Z,14.00
2019-04-29T05:36:01.904Z,14.13
2019-04-29T05:41:03.396Z,14.14
2019-04-29T05:46:31.075Z,14.21
2019-04-29T05:51:42.999Z,14.31
2019-04-29T05:56:45.027Z,14.26
2019-04-29T06:01:48.905Z,14.26
2019-04-29T06:06:51.171Z,14.34
2019-04-29T06:11:53.254Z,14.44
2019-04-29T06:16:57.581Z,14.43
2019-04-29T06:21:59.335Z,14.41
2019-04-29T06:27:01.563Z,14.31
2019-04-29T06:32:03.615Z,14.34
2019-04-29T06:37:05.828Z,14.36
2019-04-29T06:42:08.015Z,14.34
2019-04-29T06:47:10.169Z,14.39
2019-04-29T06:52:12.274Z,14.32
2019-04-29T06:57:14.330Z,14.33
2019-04-29T07:02:16.397Z,14.30
2019-04-29T07:07:18.482Z,14.17
2019-04-29T07:12:20.573Z,14.07
2019-04-29T07:17:22.645Z,13.93
2019-04-29T07:22:25.828Z,13.93
2019-04-29T07:27:28.754Z,13.95
2019-04-29T07:32:32.452Z,13.90
2019-04-29T07:37:35.875Z,13.96
2019-04-29T07:42:38.076Z,13.95
2019-04-29T07:47:41.028Z,13.99
2019-04-29T07:52:45.599Z,14.01
2019-04-29T07:57:47.753Z,14.01
2019-04-29T08:02:51.125Z,14.10
2019-04-29T08:07:53.316Z,14.15
2019-04-29T08:12:57.890Z,14.18
2019-04-29T08:18:06.691Z,14.19
2019-04-29T08:23:04.165Z,14.25
2019-04-29T08:28:06.346Z,14.25
2019-04-29T08:33:11.983Z,14.23
2019-04-29T08:38:12.445Z,14.20
2019-04-29T08:43:34.187Z,14.25
2019-04-29T08:48:36.345Z,14.40
2019-04-29T08:53:38.415Z,14.38
2019-04-29T08:58:44.285Z,14.37
2019-04-29T09:03:44.519Z,14.35
2019-04-29T09:08:54.485Z,14.35
2019-04-29T09:13:50.631Z,14.31
2019-04-29T09:18:52.693Z,14.33
2019-04-29T09:23:54.774Z,14.32
2019-04-29T09:28:59.688Z,14.27
2019-04-29T09:34:06.696Z,14.19
2019-04-29T09:39:05.140Z,14.24
2019-04-29T09:44:35.232Z,14.23
2019-04-29T09:49:36.977Z,14.26
2019-04-29T09:54:39.041Z,14.21
2019-04-29T09:59:47.167Z,14.10
2019-04-29T10:05:11.678Z,14.08
2019-04-29T10:10:13.836Z,14.06
2019-04-29T10:15:18.241Z,14.03
2019-04-29T10:20:25.016Z,14.03
2019-04-29T10:25:27.075Z,14.06
2019-04-29T10:30:32.392Z,14.08
2019-04-29T10:35:34.780Z,14.13
2019-04-29T10:41:00.572Z,14.07
2019-04-29T10:46:24.803Z,14.07
2019-04-29T10:51:27.463Z,14.13
2019-04-29T10:56:30.867Z,14.13
2019-04-29T11:02:34.300Z,14.10
2019-04-29T11:07:38.721Z,14.03
2019-04-29T11:12:40.785Z,14.01
2019-04-29T11:17:44.418Z,14.01
2019-04-29T11:22:53.380Z,14.02
2019-04-29T11:27:56.386Z,13.96
2019-04-29T11:33:11.261Z,13.96
2019-04-29T11:38:15.262Z,13.91
2019-04-29T11:43:18.157Z,13.85
2019-04-29T11:48:20.267Z,13.92
2019-04-29T11:53:22.450Z,13.92
2019-04-29T11:58:40.938Z,13.92
2019-04-29T12:03:43.977Z,13.96
2019-04-29T12:08:48.183Z,13.93
2019-04-29T12:14:12.253Z,13.83
2019-04-29T12:19:22.478Z,13.88
2019-04-29T12:24:24.714Z,13.90
2019-04-29T12:29:26.784Z,13.93
2019-04-29T12:34:48.292Z,13.83
2019-04-29T12:40:09.849Z,13.72
2019-04-29T12:45:22.928Z,13.67
2019-04-29T12:50:25.038Z,13.69
2019-04-29T12:55:44.196Z,13.74
2019-04-29T13:00:47.246Z,13.72
2019-04-29T13:06:04.124Z,13.93
2019-04-29T13:11:06.646Z,13.84
2019-04-29T13:16:22.043Z,13.91
2019-04-29T13:21:24.350Z,13.89
2019-04-29T13:26:28.758Z,13.92
2019-04-29T13:31:38.075Z,14.00
2019-04-29T13:36:34.527Z,13.93
2019-04-29T13:41:55.572Z,13.91
2019-04-29T13:46:59.464Z,13.86
2019-04-29T13:52:01.719Z,13.88
2019-04-29T13:57:08.891Z,13.83
2019-04-29T14:07:39.394Z,13.81
2019-04-29T14:12:48.580Z,13.85
2019-04-29T14:17:45.273Z,13.90
2019-04-29T14:22:48.853Z,13.95
2019-04-29T14:27:50.947Z,14.02
2019-04-29T14:32:57.017Z,14.02
2019-04-29T14:38:04.266Z,14.11
2019-04-29T14:43:28.721Z,14.14
2019-04-29T14:48:42.255Z,14.14
2019-04-29T14:53:37.790Z,14.22
2019-04-29T14:58:39.997Z,14.23
2019-04-29T15:03:56.631Z,14.22
2019-04-29T15:08:58.862Z,14.30
2019-04-29T15:14:08.741Z,14.38
2019-04-29T15:19:28.776Z,14.44
2019-04-29T15:24:32.381Z,14.46
2019-04-29T15:29:34.835Z,14.48
2019-04-29T15:34:40.036Z,14.54
2019-04-29T15:39:45.843Z,14.57
2019-04-29T15:44:44.903Z,14.56
2019-04-29T15:49:46.970Z,14.59
2019-04-29T15:54:51.022Z,14.63
2019-04-29T15:59:58.661Z,14.73
2019-04-29T16:05:04.693Z,14.73
2019-04-29T16:10:30.585Z,14.81
2019-04-29T16:15:32.677Z,14.85
2019-04-29T16:20:34.750Z,14.86
2019-04-29T16:25:40.802Z,14.96
2019-04-29T16:30:42.744Z,15.06
2019-04-29T16:35:44.865Z,15.09
2019-04-29T16:40:57.217Z,15.14
2019-04-29T16:46:23.460Z,15.19
2019-04-29T16:51:22.035Z,15.24
2019-04-29T16:56:24.143Z,15.21
2019-04-29T17:01:26.225Z,15.21
2019-04-29T17:06:28.298Z,15.23
2019-04-29T17:11:31.751Z,15.28
2019-04-29T17:16:33.900Z,15.25
2019-04-29T17:21:35.958Z,15.27
2019-04-29T17:26:45.482Z,15.35
2019-04-29T17:32:10.852Z,15.34
2019-04-29T17:37:13.599Z,15.35
2019-04-29T17:42:15.717Z,15.42
2019-04-29T17:47:37.876Z,15.51
2019-04-29T17:52:39.882Z,15.54
2019-04-29T17:57:56.412Z,15.53
2019-04-29T18:03:16.763Z,15.58
2019-04-29T18:08:44.862Z,15.62
2019-04-29T18:13:47.131Z,15.60
2019-04-29T18:19:05.695Z,15.57
2019-04-29T18:24:29.450Z,15.54
2019-04-29T18:29:29.845Z,15.55
2019-04-29T18:34:33.558Z,15.57
2019-04-29T18:39:36.319Z,15.59
2019-04-29T18:44:40.531Z,15.51
2019-04-29T18:49:42.409Z,15.43
2019-04-29T18:54:44.991Z,15.43
2019-04-29T18:59:47.307Z,15.44
2019-04-29T19:05:00.679Z,15.45
2019-04-29T19:10:06.880Z,15.38
2019-04-29T19:15:11.610Z,15.39
2019-04-29T19:20:16.655Z,15.28
2019-04-29T19:25:16.938Z,15.23
2019-04-29T19:30:21.143Z,15.22
2019-04-29T19:35:25.154Z,15.15
2019-04-29T19:40:30.114Z,15.09
2019-04-29T19:45:31.030Z,15.00
2019-04-29T19:50:33.079Z,14.96
2019-04-29T19:55:41.884Z,14.92
2019-04-29T20:00:39.618Z,14.86
2019-04-29T20:05:49.488Z,14.91
2019-04-29T20:10:52.690Z,14.80
2019-04-29T20:16:12.610Z,14.72
2019-04-29T20:21:24.971Z,14.60
2019-04-29T20:26:28.663Z,14.54
2019-04-29T20:31:25.834Z,14.50
2019-04-29T20:36:38.545Z,14.42
2019-04-29T20:41:41.104Z,14.34
2019-04-29T20:46:44.939Z,14.29
2019-04-29T20:51:51.217Z,14.24
2019-04-29T20:56:47.294Z,14.21
2019-04-29T21:01:56.745Z,14.16
2019-04-29T21:07:02.101Z,14.11
2019-04-29T21:12:13.411Z,13.99
2019-04-29T21:17:28.215Z,13.95
2019-04-29T21:22:23.460Z,13.90
2019-04-29T21:27:24.162Z,13.81
2019-04-29T21:32:30.582Z,13.78
2019-04-29T21:37:39.956Z,13.68
2019-04-29T21:42:47.129Z,13.60
2019-04-29T21:47:53.345Z,13.52
2019-04-29T21:52:55.409Z,13.44
2019-04-29T21:57:58.869Z,13.32
2019-04-29T22:03:00.797Z,13.26
2019-04-29T22:08:03.091Z,13.24
2019-04-29T22:13:05.343Z,13.16
2019-04-29T22:18:14.068Z,12.98
2019-04-29T22:23:13.067Z,12.87
2019-04-29T22:28:19.543Z,12.73
2019-04-29T22:33:19.420Z,12.63
2019-04-29T22:38:21.580Z,12.52
2019-04-29T22:43:33.580Z,12.40
2019-04-29T22:48:35.893Z,12.29
2019-04-29T22:53:40.016Z,12.14
2019-04-29T22:58:43.886Z,12.03
2019-04-29T23:03:47.147Z,11.99
2019-04-29T23:08:49.270Z,11.93
2019-04-29T23:13:51.418Z,11.93
2019-04-29T23:18:55.275Z,11.86
2019-04-29T23:24:13.260Z,11.77
2019-04-29T23:29:13.145Z,11.58
2019-04-29T23:34:15.520Z,11.43
2019-04-29T23:39:17.903Z,11.34
2019-04-29T23:44:19.951Z,11.32
2019-04-29T23:49:22.071Z,11.28
2019-04-29T23:54:25.192Z,11.24
2019-04-29T23:59:29.386Z,11.16
